createdAt,value
2019-05-25T00:04:43.658Z,6.66
2019-05-25T00:09:49.927Z,7.44
2019-05-25T00:14:56.238Z,6.12
2019-05-25T00:20:02.728Z,8.04
2019-05-25T00:25:09.270Z,6.55
2019-05-25T00:30:15.595Z,7.07
2019-05-25T00:35:21.973Z,8.60
2019-05-25T00:40:28.410Z,8.39
2019-05-25T00:45:34.552Z,8.45
2019-05-25T00:50:40.949Z,7.82
2019-05-25T00:55:47.379Z,8.63
2019-05-25T01:00:53.733Z,8.38
2019-05-25T01:06:00.117Z,9.49
2019-05-25T01:11:06.584Z,9.47
2019-05-25T01:16:12.811Z,8.18
2019-05-25T01:21:19.351Z,10.96
2019-05-25T01:26:25.621Z,7.52
2019-05-25T01:31:31.949Z,8.79
2019-05-25T01:36:38.393Z,9.37
2019-05-25T01:41:44.536Z,10.46
2019-05-25T01:46:50.683Z,12.77
2019-05-25T01:51:57.105Z,8.50
2019-05-25T01:57:03.564Z,6.51
2019-05-25T02:02:10.074Z,7.97
2019-05-25T02:07:16.215Z,8.72
2019-05-25T02:12:22.781Z,9.12
2019-05-25T02:17:29.218Z,8.25
2019-05-25T02:22:35.554Z,9.48
2019-05-25T02:27:41.832Z,8.93
2019-05-25T02:32:48.317Z,9.93
2019-05-25T02:37:54.638Z,10.80
2019-05-25T02:43:01.071Z,8.95
2019-05-25T02:48:07.368Z,8.95
2019-05-25T02:53:13.625Z,8.84
2019-05-25T02:58:19.936Z,9.95
2019-05-25T03:03:26.544Z,10.44
2019-05-25T03:08:33.016Z,11.87
2019-05-25T03:13:39.484Z,9.57
2019-05-25T03:18:45.648Z,9.95
2019-05-25T03:23:52.136Z,12.81
2019-05-25T03:28:58.596Z,9.91
2019-05-25T03:34:05.418Z,12.37
2019-05-25T03:39:11.874Z,13.32
2019-05-25T03:44:18.162Z,10.86
2019-05-25T03:49:24.482Z,11.81
2019-05-25T03:54:30.736Z,10.96
2019-05-25T03:59:37.098Z,11.24
2019-05-25T04:04:43.817Z,14.97
2019-05-25T04:09:50.103Z,10.34
2019-05-25T04:15:02.390Z,9.65
2019-05-25T04:19:58.892Z,10.14
2019-05-25T04:25:05.604Z,10.79
2019-05-25T04:30:12.032Z,11.11
2019-05-25T04:35:18.834Z,10.40
2019-05-25T04:40:25.546Z,10.73
2019-05-25T04:45:33.156Z,10.30
2019-05-25T04:50:39.710Z,8.97
2019-05-25T04:55:46.927Z,11.69
2019-05-25T05:00:53.574Z,12.34
2019-05-25T05:06:00.380Z,9.13
2019-05-25T05:11:07.303Z,10.83
2019-05-25T05:16:14.107Z,10.05
2019-05-25T05:21:21.158Z,10.81
2019-05-25T05:26:27.781Z,6.70
2019-05-25T05:31:34.428Z,8.29
2019-05-25T05:36:41.422Z,8.23
2019-05-25T05:41:48.044Z,8.61
2019-05-25T05:46:55.624Z,10.43
2019-05-25T05:52:02.676Z,9.56
2019-05-25T05:57:12.283Z,9.10
2019-05-25T06:02:09.652Z,10.01
2019-05-25T06:07:16.249Z,9.65
2019-05-25T06:12:22.722Z,9.27
2019-05-25T06:17:29.408Z,8.43
2019-05-25T06:22:36.056Z,9.75
2019-05-25T06:27:42.710Z,8.36
2019-05-25T06:32:49.140Z,8.21
2019-05-25T06:37:55.847Z,9.42
2019-05-25T06:43:02.286Z,9.88
2019-05-25T06:48:12.902Z,8.74
2019-05-25T06:53:09.825Z,8.86
2019-05-25T06:58:17.446Z,9.66
2019-05-25T07:03:24.028Z,7.51
2019-05-25T07:08:30.591Z,8.54
2019-05-25T07:13:37.138Z,9.16
2019-05-25T07:18:43.717Z,8.42
2019-05-25T07:23:50.298Z,6.65
2019-05-25T07:28:56.888Z,8.43
2019-05-25T07:34:03.393Z,5.74
2019-05-25T07:39:10.341Z,6.27
2019-05-25T07:44:16.848Z,6.08
2019-05-25T07:49:23.632Z,4.21
2019-05-25T07:54:30.316Z,5.05
2019-05-25T07:59:36.789Z,4.21
2019-05-25T08:04:43.309Z,4.82
2019-05-25T08:09:50.102Z,5.99
2019-05-25T08:14:56.615Z,6.35
2019-05-25T08:20:03.287Z,4.38
2019-05-25T08:25:09.797Z,4.90
2019-05-25T08:30:16.369Z,6.13
2019-05-25T08:35:23.062Z,6.69
2019-05-25T08:40:29.707Z,5.92
2019-05-25T08:45:36.341Z,5.21
2019-05-25T08:50:42.927Z,5.64
2019-05-25T08:55:49.397Z,4.24
2019-05-25T09:00:55.947Z,5.55
2019-05-25T09:06:03.352Z,7.38
2019-05-25T09:11:10.759Z,5.59
2019-05-25T09:16:17.545Z,4.60
2019-05-25T09:21:24.911Z,4.58
2019-05-25T09:26:31.610Z,9.56
2019-05-25T09:31:37.961Z,3.16
2019-05-25T09:36:44.325Z,4.23
2019-05-25T09:41:51.015Z,3.84
2019-05-25T09:46:57.414Z,4.27
2019-05-25T09:52:04.564Z,7.40
2019-05-25T09:57:10.992Z,2.15
2019-05-25T10:02:17.390Z,7.92
2019-05-25T10:07:23.548Z,6.24
2019-05-25T10:12:30.183Z,2.94
2019-05-25T10:17:36.630Z,5.30
2019-05-25T10:22:42.874Z,7.05
2019-05-25T10:27:49.203Z,2.95
2019-05-25T10:32:57.862Z,4.68
2019-05-25T10:38:03.982Z,4.89
2019-05-25T10:43:10.297Z,3.72
2019-05-25T10:48:16.609Z,4.75
2019-05-25T10:53:23.036Z,4.46
2019-05-25T10:58:29.193Z,3.59
2019-05-25T11:03:35.436Z,6.76
2019-05-25T11:08:41.634Z,5.88
2019-05-25T11:13:47.896Z,4.89
2019-05-25T11:18:54.190Z,5.46
2019-05-25T11:24:00.596Z,6.88
2019-05-25T11:29:06.942Z,4.36
2019-05-25T11:34:13.139Z,4.28
2019-05-25T11:39:19.465Z,3.48
2019-05-25T11:44:25.621Z,5.00
2019-05-25T11:49:31.873Z,5.01
2019-05-25T11:54:38.289Z,5.46
2019-05-25T11:59:45.124Z,6.04
2019-05-25T12:04:51.693Z,5.18
2019-05-25T12:09:58.504Z,4.28
2019-05-25T12:15:04.832Z,5.30
2019-05-25T12:20:12.741Z,4.84
2019-05-25T12:25:18.887Z,3.56
2019-05-25T12:30:39.705Z,3.80
2019-05-25T12:35:31.605Z,4.34
2019-05-25T12:40:52.861Z,5.43
2019-05-25T12:45:46.182Z,5.70
2019-05-25T12:50:52.660Z,8.81
2019-05-25T12:55:59.577Z,6.67
2019-05-25T13:01:05.880Z,6.72
2019-05-25T13:06:12.671Z,4.47
2019-05-25T13:11:19.278Z,10.27
2019-05-25T13:16:25.425Z,4.71
2019-05-25T13:21:31.608Z,8.14
2019-05-25T13:26:38.283Z,4.95
2019-05-25T13:31:44.705Z,4.95
2019-05-25T13:36:51.524Z,5.90
2019-05-25T13:41:58.242Z,8.58
2019-05-25T13:47:04.657Z,7.94
2019-05-25T13:52:10.905Z,6.10
2019-05-25T13:57:17.169Z,7.65
2019-05-25T14:02:23.521Z,6.03
2019-05-25T14:07:29.855Z,5.14
2019-05-25T14:12:36.211Z,5.58
2019-05-25T14:17:42.572Z,5.98
2019-05-25T14:22:49.852Z,4.33
2019-05-25T14:27:56.476Z,6.02
2019-05-25T14:33:03.045Z,6.99
2019-05-25T14:38:09.341Z,4.87
2019-05-25T14:43:15.574Z,7.11
2019-05-25T14:48:22.190Z,6.49
2019-05-25T14:53:28.653Z,5.71
2019-05-25T14:58:35.393Z,6.71
2019-05-25T15:03:41.593Z,7.14
2019-05-25T15:08:48.040Z,5.84
2019-05-25T15:13:54.439Z,7.52
2019-05-25T15:19:01.105Z,3.71
2019-05-25T15:24:07.850Z,7.42
2019-05-25T15:29:14.188Z,7.69
2019-05-25T15:34:20.699Z,5.64
2019-05-25T15:39:27.272Z,7.07
2019-05-25T15:44:33.676Z,5.14
2019-05-25T15:49:40.268Z,4.94
2019-05-25T15:54:46.531Z,6.06
2019-05-25T15:59:56.083Z,7.23
2019-05-25T16:05:04.867Z,6.98
2019-05-25T16:10:11.082Z,5.37
2019-05-25T16:15:17.568Z,5.09
2019-05-25T16:20:23.726Z,5.75
2019-05-25T16:25:29.905Z,8.60
2019-05-25T16:30:36.055Z,5.85
2019-05-25T16:35:42.897Z,4.71
2019-05-25T16:40:49.835Z,4.74
2019-05-25T16:45:56.298Z,4.88
2019-05-25T16:51:03.114Z,4.21
2019-05-25T16:56:09.456Z,4.46
2019-05-25T17:01:18.110Z,6.07
2019-05-25T17:06:24.869Z,4.72
2019-05-25T17:11:31.548Z,3.02
2019-05-25T17:16:37.996Z,4.03
2019-05-25T17:21:44.323Z,5.63
2019-05-25T17:26:50.499Z,6.71
2019-05-25T17:31:56.869Z,4.88
2019-05-25T17:37:03.343Z,4.48
2019-05-25T17:42:09.649Z,4.12
2019-05-25T17:47:16.033Z,4.81
2019-05-25T17:52:23.056Z,7.39
2019-05-25T17:57:29.410Z,5.62
2019-05-25T18:02:35.812Z,5.36
2019-05-25T18:07:42.378Z,5.39
2019-05-25T18:12:48.707Z,3.87
2019-05-25T18:17:55.142Z,5.26
2019-05-25T18:23:01.587Z,4.82
2019-05-25T18:28:08.100Z,5.80
2019-05-25T18:33:14.393Z,5.29
2019-05-25T18:38:20.703Z,3.32
2019-05-25T18:43:27.303Z,3.46
2019-05-25T18:48:34.466Z,6.04
2019-05-25T18:53:41.197Z,2.88
2019-05-25T18:58:47.977Z,2.65
2019-05-25T19:03:54.453Z,3.44
2019-05-25T19:09:01.013Z,3.97
2019-05-25T19:14:07.415Z,3.84
2019-05-25T19:19:13.917Z,4.38
2019-05-25T19:24:20.542Z,2.72
2019-05-25T19:29:26.720Z,5.30
2019-05-25T19:34:33.033Z,4.02
2019-05-25T19:39:39.234Z,4.91
2019-05-25T19:44:45.718Z,5.25
2019-05-25T19:49:52.108Z,4.44
2019-05-25T19:54:58.613Z,5.28
2019-05-25T20:00:05.114Z,5.12
2019-05-25T20:05:16.703Z,4.29
2019-05-25T20:10:13.768Z,4.80
2019-05-25T20:15:20.300Z,4.04
2019-05-25T20:20:26.503Z,4.76
2019-05-25T20:25:32.823Z,4.08
2019-05-25T20:30:39.088Z,4.26
2019-05-25T20:35:45.469Z,5.65
2019-05-25T20:40:51.984Z,4.52
2019-05-25T20:45:58.290Z,4.16
2019-05-25T20:51:04.462Z,4.75
2019-05-25T20:56:10.904Z,4.25
2019-05-25T21:01:17.087Z,4.77
2019-05-25T21:06:23.758Z,3.36
2019-05-25T21:11:30.328Z,6.65
2019-05-25T21:16:36.587Z,4.45
2019-05-25T21:21:42.900Z,3.63
2019-05-25T21:26:49.069Z,4.26
2019-05-25T21:31:55.385Z,3.95
2019-05-25T21:37:01.645Z,6.48
2019-05-25T21:42:07.845Z,5.12
2019-05-25T21:47:14.702Z,5.16
2019-05-25T21:52:21.070Z,3.49
2019-05-25T21:57:27.317Z,4.31
2019-05-25T22:02:33.941Z,3.68
2019-05-25T22:07:40.040Z,3.35
2019-05-25T22:12:46.247Z,4.68
2019-05-25T22:18:03.401Z,4.76
2019-05-25T22:23:04.933Z,3.96
2019-05-25T22:28:01.426Z,4.42
2019-05-25T22:33:07.929Z,4.35
2019-05-25T22:38:15.057Z,4.50
2019-05-25T22:43:21.417Z,5.28
2019-05-25T22:48:32.194Z,5.79
2019-05-25T22:53:28.629Z,5.16
2019-05-25T22:58:35.264Z,5.69
2019-05-25T23:03:45.114Z,4.91
2019-05-25T23:08:57.105Z,7.09
2019-05-25T23:14:09.569Z,4.59
2019-05-25T23:18:58.545Z,6.24
2019-05-25T23:24:07.864Z,4.97
2019-05-25T23:29:14.301Z,6.57
2019-05-25T23:34:20.724Z,5.82
2019-05-25T23:39:26.900Z,5.60
2019-05-25T23:44:33.487Z,6.59
2019-05-25T23:49:40.037Z,5.28
2019-05-25T23:54:49.058Z,7.46
2019-05-25T23:59:55.584Z,6.09
